createdAt,value
2022-10-05T00:01:48.463Z,13.39
2022-10-05T00:04:19.918Z,13.76
2022-10-05T00:06:52.695Z,13.93
2022-10-05T00:09:23.563Z,14.25
2022-10-05T00:11:54.790Z,14.45
2022-10-05T00:14:28.711Z,14.66
2022-10-05T00:16:59.690Z,14.26
2022-10-05T00:19:32.430Z,12.99
2022-10-05T00:22:07.558Z,12.25
2022-10-05T00:24:38.373Z,12.97
2022-10-05T00:27:15.581Z,13.70
2022-10-05T00:29:46.402Z,14.13
2022-10-05T00:32:17.156Z,14.39
2022-10-05T00:34:48.219Z,14.22
2022-10-05T00:37:18.969Z,13.04
2022-10-05T00:39:50.450Z,12.36
2022-10-05T00:42:30.774Z,12.96
2022-10-05T00:45:03.799Z,13.54
2022-10-05T00:47:46.131Z,13.79
2022-10-05T00:50:27.928Z,13.94
2022-10-05T00:53:02.944Z,14.07
2022-10-05T00:55:39.950Z,14.17
2022-10-05T00:58:14.485Z,14.25
2022-10-05T01:00:47.805Z,14.41
2022-10-05T01:03:16.927Z,14.29
2022-10-05T01:05:55.775Z,13.07
2022-10-05T01:08:31.054Z,11.81
2022-10-05T01:11:05.242Z,11.45
2022-10-05T01:13:40.366Z,12.34
2022-10-05T01:16:13.266Z,12.97
2022-10-05T01:18:47.705Z,13.38
2022-10-05T01:21:19.891Z,13.67
2022-10-05T01:24:01.607Z,13.87
2022-10-05T01:26:48.748Z,14.07
2022-10-05T01:29:22.232Z,14.22
2022-10-05T01:31:58.311Z,14.12
2022-10-05T01:34:35.993Z,12.96
2022-10-05T01:37:12.217Z,11.78
2022-10-05T01:39:47.348Z,11.26
2022-10-05T01:42:23.293Z,12.19
2022-10-05T01:44:56.506Z,13.01
2022-10-05T01:47:30.314Z,13.31
2022-10-05T01:50:03.145Z,13.28
2022-10-05T01:52:38.741Z,13.45
2022-10-05T01:55:13.872Z,13.84
2022-10-05T01:57:51.166Z,13.61
2022-10-05T02:00:22.243Z,12.30
2022-10-05T02:02:58.262Z,11.87
2022-10-05T02:05:31.502Z,12.50
2022-10-05T02:08:03.114Z,12.96
2022-10-05T02:10:36.533Z,13.29
2022-10-05T02:13:11.114Z,13.55
2022-10-05T02:15:44.111Z,13.77
2022-10-05T02:18:19.618Z,14.00
2022-10-05T02:20:51.219Z,13.77
2022-10-05T02:23:23.207Z,12.51
2022-10-05T02:25:55.631Z,11.43
2022-10-05T02:28:28.367Z,11.89
2022-10-05T02:31:02.091Z,12.52
2022-10-05T02:33:35.142Z,12.78
2022-10-05T02:36:13.098Z,13.00
2022-10-05T02:38:52.111Z,13.07
2022-10-05T02:41:28.055Z,13.06
2022-10-05T02:44:03.401Z,13.08
2022-10-05T02:46:36.790Z,13.35
2022-10-05T02:49:14.529Z,13.62
2022-10-05T02:51:48.382Z,13.76
2022-10-05T02:54:24.021Z,13.92
2022-10-05T02:56:57.721Z,13.77
2022-10-05T02:59:32.418Z,12.57
2022-10-05T03:02:09.747Z,11.40
2022-10-05T03:04:42.094Z,10.85
2022-10-05T03:07:16.816Z,11.72
2022-10-05T03:09:50.758Z,12.61
2022-10-05T03:12:29.754Z,13.18
2022-10-05T03:15:04.182Z,13.53
2022-10-05T03:17:38.411Z,13.79
2022-10-05T03:20:14.586Z,13.73
2022-10-05T03:22:48.816Z,12.61
2022-10-05T03:25:29.003Z,11.50
2022-10-05T03:28:02.866Z,10.99
2022-10-05T03:30:35.671Z,11.87
2022-10-05T03:33:11.979Z,12.72
2022-10-05T03:35:48.135Z,13.22
2022-10-05T03:38:24.021Z,13.51
2022-10-05T03:40:58.765Z,13.68
2022-10-05T03:43:44.687Z,13.55
2022-10-05T03:46:17.918Z,12.22
2022-10-05T03:48:52.818Z,11.01
2022-10-05T03:51:25.905Z,11.14
2022-10-05T03:54:01.691Z,11.83
2022-10-05T03:56:34.466Z,12.42
2022-10-05T03:59:09.404Z,12.82
2022-10-05T04:01:44.865Z,13.10
2022-10-05T04:04:21.577Z,13.31
2022-10-05T04:06:53.600Z,13.48
2022-10-05T04:09:25.715Z,13.64
2022-10-05T04:11:59.470Z,13.51
2022-10-05T04:14:33.555Z,12.35
2022-10-05T04:17:08.184Z,11.12
2022-10-05T04:19:41.683Z,10.57
2022-10-05T04:22:13.694Z,11.28
2022-10-05T04:24:47.254Z,12.02
2022-10-05T04:27:19.200Z,12.51
2022-10-05T04:29:55.087Z,12.86
2022-10-05T04:32:37.072Z,13.01
2022-10-05T04:35:18.243Z,13.20
2022-10-05T04:37:54.274Z,13.25
2022-10-05T04:40:33.076Z,12.65
2022-10-05T04:43:07.293Z,11.30
2022-10-05T04:45:45.011Z,11.15
2022-10-05T04:48:26.702Z,11.63
2022-10-05T04:51:03.771Z,11.86
2022-10-05T04:53:37.240Z,12.52
2022-10-05T04:56:10.760Z,12.44
2022-10-05T04:58:57.908Z,10.83
2022-10-05T05:01:42.268Z,10.45
2022-10-05T05:04:23.369Z,11.48
2022-10-05T05:07:00.189Z,12.02
2022-10-05T05:09:53.544Z,12.59
2022-10-05T05:12:30.010Z,12.63
2022-10-05T05:15:08.491Z,12.56
2022-10-05T05:17:48.498Z,12.62
2022-10-05T05:20:23.473Z,12.58
2022-10-05T05:22:58.950Z,12.80
2022-10-05T05:25:36.222Z,12.20
2022-10-05T05:28:14.713Z,10.95
2022-10-05T05:30:49.602Z,11.35
2022-10-05T05:33:23.217Z,11.92
2022-10-05T05:36:22.210Z,12.07
2022-10-05T05:38:59.885Z,12.35
2022-10-05T05:41:36.875Z,12.28
2022-10-05T05:44:11.716Z,12.05
2022-10-05T05:47:02.848Z,12.37
2022-10-05T05:49:43.259Z,12.76
2022-10-05T05:52:17.352Z,13.03
2022-10-05T05:54:51.546Z,13.32
2022-10-05T05:57:20.582Z,13.61
2022-10-05T05:59:57.817Z,12.85
2022-10-05T06:02:30.521Z,11.45
2022-10-05T06:05:04.205Z,10.81
2022-10-05T06:07:38.251Z,11.70
2022-10-05T06:10:25.073Z,12.64
2022-10-05T06:13:07.779Z,13.12
2022-10-05T06:15:42.161Z,13.39
2022-10-05T06:18:15.211Z,13.26
2022-10-05T06:20:50.527Z,13.54
2022-10-05T06:23:23.634Z,13.83
2022-10-05T06:26:09.756Z,14.03
2022-10-05T06:28:42.641Z,14.24
2022-10-05T06:31:20.903Z,14.09
2022-10-05T06:33:56.181Z,12.80
2022-10-05T06:36:39.610Z,12.11
2022-10-05T06:39:18.057Z,12.79
2022-10-05T06:41:55.696Z,13.53
2022-10-05T06:44:50.819Z,14.14
2022-10-05T06:47:37.498Z,14.57
2022-10-05T06:50:36.628Z,13.97
2022-10-05T06:53:30.388Z,12.69
2022-10-05T06:56:04.272Z,12.15
2022-10-05T06:58:52.218Z,13.05
2022-10-05T07:01:27.875Z,13.92
2022-10-05T07:04:10.491Z,14.46
2022-10-05T07:06:44.883Z,14.95
2022-10-05T07:09:22.435Z,15.20
2022-10-05T07:12:13.198Z,14.35
2022-10-05T07:14:58.459Z,13.39
2022-10-05T07:17:37.793Z,13.19
2022-10-05T07:20:15.194Z,14.31
2022-10-05T07:22:54.828Z,15.49
2022-10-05T07:25:30.024Z,15.23
2022-10-05T07:28:04.650Z,13.98
2022-10-05T07:30:39.825Z,13.53
2022-10-05T07:33:14.518Z,14.57
2022-10-05T07:36:07.096Z,15.81
2022-10-05T07:38:40.736Z,15.33
2022-10-05T07:41:15.783Z,14.28
2022-10-05T07:44:02.026Z,13.97
2022-10-05T07:46:42.858Z,15.05
2022-10-05T07:49:19.751Z,16.08
2022-10-05T07:51:52.372Z,15.81
2022-10-05T07:54:25.978Z,14.90
2022-10-05T07:57:01.636Z,14.68
2022-10-05T07:59:36.117Z,15.58
2022-10-05T08:02:13.732Z,16.37
2022-10-05T08:04:52.937Z,16.89
2022-10-05T08:10:04.807Z,16.13
2022-10-05T08:12:40.705Z,15.37
2022-10-05T08:15:15.843Z,15.18
2022-10-05T08:17:50.195Z,16.38
2022-10-05T08:20:36.858Z,16.73
2022-10-05T08:23:13.387Z,15.77
2022-10-05T08:25:47.395Z,15.60
2022-10-05T08:28:20.416Z,16.88
2022-10-05T08:31:07.413Z,16.48
2022-10-05T08:33:43.534Z,15.75
2022-10-05T08:36:15.812Z,15.48
2022-10-05T08:38:46.749Z,16.28
2022-10-05T08:41:29.970Z,17.28
2022-10-05T08:44:14.143Z,17.90
2022-10-05T08:46:58.458Z,17.43
2022-10-05T08:49:48.173Z,16.84
2022-10-05T08:52:30.322Z,16.48
2022-10-05T08:55:18.366Z,16.25
2022-10-05T08:58:03.642Z,16.10
2022-10-05T09:00:40.593Z,16.35
2022-10-05T09:03:25.273Z,17.94
2022-10-05T09:06:14.589Z,18.47
2022-10-05T09:08:49.298Z,17.49
2022-10-05T09:11:22.182Z,16.86
2022-10-05T09:14:09.595Z,16.43
2022-10-05T09:16:44.812Z,16.16
2022-10-05T09:19:29.893Z,15.99
2022-10-05T09:22:05.168Z,15.90
2022-10-05T09:24:48.477Z,15.82
2022-10-05T09:27:19.774Z,15.77
2022-10-05T09:30:09.988Z,15.73
2022-10-05T09:32:50.446Z,16.16
2022-10-05T09:35:30.448Z,17.71
2022-10-05T09:38:15.473Z,18.32
2022-10-05T09:41:02.274Z,17.75
2022-10-05T09:43:46.629Z,17.38
2022-10-05T09:46:32.108Z,17.14
2022-10-05T09:49:17.819Z,16.99
2022-10-05T09:52:13.919Z,16.82
2022-10-05T09:55:11.920Z,16.69
2022-10-05T09:57:54.145Z,16.61
2022-10-05T10:00:41.102Z,17.30
2022-10-05T10:03:28.276Z,18.82
2022-10-05T10:06:06.575Z,19.31
2022-10-05T10:08:43.095Z,18.81
2022-10-05T10:11:30.218Z,18.36
2022-10-05T10:14:11.530Z,18.06
2022-10-05T10:16:53.906Z,17.85
2022-10-05T10:19:42.437Z,17.70
2022-10-05T10:22:29.154Z,17.61
2022-10-05T10:25:04.625Z,17.50
2022-10-05T10:27:45.583Z,17.38
2022-10-05T10:30:44.222Z,17.31
2022-10-05T10:33:44.000Z,17.32
2022-10-05T10:36:17.604Z,17.39
2022-10-05T10:38:55.621Z,17.38
2022-10-05T10:41:34.721Z,17.30
2022-10-05T10:44:18.868Z,17.19
2022-10-05T10:46:54.922Z,17.05
2022-10-05T10:49:37.844Z,17.03
2022-10-05T10:52:25.084Z,17.06
2022-10-05T10:55:11.182Z,17.14
2022-10-05T10:57:50.708Z,17.28
2022-10-05T11:00:25.528Z,17.39
2022-10-05T11:03:03.038Z,17.47
2022-10-05T11:05:39.910Z,17.60
2022-10-05T11:08:22.115Z,17.73
2022-10-05T11:11:08.283Z,17.78
2022-10-05T11:13:48.427Z,17.85
2022-10-05T11:16:32.366Z,17.87
2022-10-05T11:19:08.975Z,17.82
2022-10-05T11:21:45.798Z,17.87
2022-10-05T11:24:30.182Z,17.99
2022-10-05T11:27:09.485Z,18.08
2022-10-05T11:29:49.511Z,18.13
2022-10-05T11:32:29.647Z,18.21
2022-10-05T11:35:13.561Z,18.26
2022-10-05T11:37:58.298Z,18.25
2022-10-05T11:40:45.466Z,18.26
2022-10-05T11:43:40.493Z,18.24
2022-10-05T11:46:14.972Z,18.32
2022-10-05T11:48:52.087Z,18.39
2022-10-05T11:51:35.575Z,18.37
2022-10-05T11:54:22.798Z,18.29
2022-10-05T11:56:57.946Z,18.22
2022-10-05T11:59:31.544Z,18.22
2022-10-05T12:02:06.378Z,18.24
2022-10-05T12:04:42.933Z,18.24
2022-10-05T12:07:18.005Z,18.25
2022-10-05T12:10:11.371Z,18.22
2022-10-05T12:12:45.693Z,18.16
2022-10-05T12:15:20.243Z,18.19
2022-10-05T12:17:51.253Z,18.21
2022-10-05T12:20:26.738Z,18.24
2022-10-05T12:23:00.391Z,18.27
2022-10-05T12:25:33.037Z,18.34
2022-10-05T12:28:07.420Z,18.40
2022-10-05T12:30:52.722Z,18.45
2022-10-05T12:33:25.720Z,18.54
2022-10-05T12:35:58.778Z,18.59
2022-10-05T12:38:31.796Z,18.63
2022-10-05T12:41:08.898Z,18.61
2022-10-05T12:43:44.888Z,18.63
2022-10-05T12:46:23.523Z,18.69
2022-10-05T12:49:01.961Z,18.73
2022-10-05T12:51:37.202Z,18.83
2022-10-05T12:54:13.569Z,18.89
2022-10-05T12:56:47.558Z,18.93
2022-10-05T12:59:24.416Z,19.02
2022-10-05T13:01:59.214Z,19.14
2022-10-05T13:04:34.668Z,19.16
2022-10-05T13:07:12.318Z,19.29
2022-10-05T13:09:49.599Z,19.54
2022-10-05T13:12:24.163Z,19.93
2022-10-05T13:15:00.797Z,20.23
2022-10-05T13:17:36.928Z,20.47
2022-10-05T13:20:14.246Z,20.72
2022-10-05T13:22:47.856Z,20.94
2022-10-05T13:25:22.374Z,21.10
2022-10-05T13:27:57.178Z,21.21
2022-10-05T13:30:28.155Z,21.00
2022-10-05T13:32:59.718Z,20.76
2022-10-05T13:35:36.159Z,20.38
2022-10-05T13:38:09.160Z,19.97
2022-10-05T13:40:38.074Z,19.81
2022-10-05T13:43:15.096Z,19.61
2022-10-05T13:45:48.063Z,19.46
2022-10-05T13:48:24.884Z,19.35
2022-10-05T13:51:01.797Z,19.25
2022-10-05T13:53:38.344Z,19.16
2022-10-05T13:56:15.329Z,19.08
2022-10-05T13:58:47.828Z,19.03
2022-10-05T14:01:22.600Z,18.98
2022-10-05T14:04:07.479Z,18.92
2022-10-05T14:06:40.225Z,18.86
2022-10-05T14:09:13.886Z,18.79
2022-10-05T14:11:51.048Z,18.74
2022-10-05T14:14:28.422Z,18.72
2022-10-05T14:17:00.354Z,18.73
2022-10-05T14:19:33.838Z,18.75
2022-10-05T14:22:11.772Z,18.78
2022-10-05T14:24:49.480Z,18.82
2022-10-05T14:27:22.165Z,18.87
2022-10-05T14:29:59.831Z,18.88
2022-10-05T14:32:33.707Z,18.86
2022-10-05T14:35:15.567Z,18.81
2022-10-05T14:37:50.435Z,18.79
2022-10-05T14:40:25.634Z,18.73
2022-10-05T14:42:56.286Z,18.65
2022-10-05T14:45:30.000Z,18.61
2022-10-05T14:48:12.403Z,18.64
2022-10-05T14:50:56.678Z,18.66
2022-10-05T14:53:28.369Z,18.63
2022-10-05T14:56:03.302Z,18.56
2022-10-05T14:58:39.409Z,18.45
2022-10-05T15:01:14.902Z,18.35
2022-10-05T15:03:52.323Z,18.27
2022-10-05T15:06:28.195Z,18.22
2022-10-05T15:09:19.871Z,18.17
2022-10-05T15:11:53.555Z,18.11
2022-10-05T15:14:26.072Z,18.07
2022-10-05T15:16:59.458Z,18.03
2022-10-05T15:19:36.359Z,17.98
2022-10-05T15:22:23.967Z,17.91
2022-10-05T15:24:58.698Z,17.84
2022-10-05T15:27:45.325Z,17.77
2022-10-05T15:30:18.696Z,17.71
2022-10-05T15:33:04.574Z,17.65
2022-10-05T15:35:48.523Z,17.59
2022-10-05T15:38:22.113Z,17.53
2022-10-05T15:40:59.434Z,17.46
2022-10-05T15:43:36.047Z,17.38
2022-10-05T15:46:11.771Z,17.29
2022-10-05T15:48:48.476Z,17.21
2022-10-05T15:51:24.145Z,17.11
2022-10-05T15:54:16.888Z,17.33
2022-10-05T15:56:54.242Z,18.78
2022-10-05T15:59:28.878Z,19.87
2022-10-05T16:02:01.995Z,20.34
2022-10-05T16:04:40.192Z,19.68
2022-10-05T16:07:31.924Z,18.92
2022-10-05T16:10:04.956Z,18.31
2022-10-05T16:12:39.678Z,17.89
2022-10-05T16:15:16.906Z,17.56
2022-10-05T16:17:55.405Z,17.28
2022-10-05T16:20:30.343Z,17.36
2022-10-05T16:23:04.316Z,18.58
2022-10-05T16:25:43.151Z,19.62
2022-10-05T16:28:20.455Z,20.02
2022-10-05T16:30:58.800Z,19.29
2022-10-05T16:33:34.584Z,18.52
2022-10-05T16:36:25.578Z,17.92
2022-10-05T16:38:59.673Z,17.52
2022-10-05T16:41:34.984Z,17.45
2022-10-05T16:44:11.387Z,18.54
2022-10-05T16:46:51.331Z,19.59
2022-10-05T16:49:29.296Z,19.96
2022-10-05T16:52:00.532Z,19.15
2022-10-05T16:54:33.263Z,18.31
2022-10-05T16:57:29.098Z,17.58
2022-10-05T17:00:10.861Z,17.38
2022-10-05T17:02:50.375Z,18.45
2022-10-05T17:05:27.486Z,19.40
2022-10-05T17:08:09.883Z,19.70
2022-10-05T17:10:49.908Z,18.85
2022-10-05T17:13:36.838Z,17.99
2022-10-05T17:16:11.584Z,17.40
2022-10-05T17:19:04.804Z,16.98
2022-10-05T17:21:38.838Z,17.03
2022-10-05T17:24:20.541Z,18.22
2022-10-05T17:26:59.623Z,19.20
2022-10-05T17:29:32.179Z,19.48
2022-10-05T17:32:19.387Z,18.61
2022-10-05T17:35:04.344Z,17.63
2022-10-05T17:37:37.116Z,17.26
2022-10-05T17:40:28.445Z,18.10
2022-10-05T17:43:04.704Z,19.02
2022-10-05T17:45:57.682Z,19.50
2022-10-05T17:48:42.617Z,19.47
2022-10-05T17:51:35.525Z,18.34
2022-10-05T17:54:37.792Z,17.26
2022-10-05T17:57:19.712Z,17.14
2022-10-05T17:59:57.881Z,18.23
2022-10-05T18:02:42.877Z,19.02
2022-10-05T18:05:27.908Z,19.47
2022-10-05T18:08:17.860Z,19.48
2022-10-05T18:11:13.211Z,18.36
2022-10-05T18:13:48.287Z,17.36
2022-10-05T18:16:32.244Z,17.74
2022-10-05T18:19:17.802Z,18.58
2022-10-05T18:22:03.334Z,19.06
2022-10-05T18:25:08.284Z,19.34
2022-10-05T18:27:55.755Z,19.11
2022-10-05T18:30:27.538Z,17.93
2022-10-05T18:33:24.394Z,17.26
2022-10-05T18:36:09.555Z,18.06
2022-10-05T18:38:45.941Z,18.81
2022-10-05T18:41:22.639Z,19.25
2022-10-05T18:44:01.245Z,19.28
2022-10-05T18:46:40.094Z,18.23
2022-10-05T18:49:17.902Z,17.22
2022-10-05T18:51:53.155Z,16.85
2022-10-05T18:54:39.276Z,17.63
2022-10-05T18:57:27.569Z,18.35
2022-10-05T19:00:02.151Z,18.71
2022-10-05T19:02:35.716Z,18.95
2022-10-05T19:05:42.655Z,18.93
2022-10-05T19:08:18.467Z,19.07
2022-10-05T19:10:57.278Z,18.98
2022-10-05T19:13:37.996Z,17.91
2022-10-05T19:16:17.942Z,16.87
2022-10-05T19:18:51.897Z,16.50
2022-10-05T19:21:28.746Z,17.37
2022-10-05T19:24:06.352Z,18.13
2022-10-05T19:26:47.160Z,18.59
2022-10-05T19:29:31.443Z,18.83
2022-10-05T19:32:04.324Z,18.68
2022-10-05T19:34:40.991Z,17.61
2022-10-05T19:37:15.384Z,16.59
2022-10-05T19:39:48.463Z,16.13
2022-10-05T19:42:35.429Z,16.96
2022-10-05T19:45:13.234Z,17.73
2022-10-05T19:47:47.695Z,18.15
2022-10-05T19:50:30.829Z,18.43
2022-10-05T19:53:08.492Z,18.69
2022-10-05T19:55:41.724Z,18.59
2022-10-05T19:58:26.029Z,17.43
2022-10-05T20:00:58.229Z,16.39
2022-10-05T20:03:29.824Z,16.84
2022-10-05T20:06:01.837Z,17.46
2022-10-05T20:08:40.090Z,17.82
2022-10-05T20:11:16.166Z,18.03
2022-10-05T20:13:47.703Z,18.11
2022-10-05T20:16:45.521Z,18.10
2022-10-05T20:19:46.853Z,18.19
2022-10-05T20:22:50.897Z,18.32
2022-10-05T20:25:33.548Z,18.01
2022-10-05T20:28:09.072Z,16.77
2022-10-05T20:30:48.933Z,16.09
2022-10-05T20:33:26.496Z,16.76
2022-10-05T20:36:03.853Z,17.06
2022-10-05T20:38:44.175Z,17.57
2022-10-05T20:41:16.705Z,17.65
2022-10-05T20:43:47.423Z,17.64
2022-10-05T20:46:23.171Z,17.83
2022-10-05T20:48:58.285Z,17.68
2022-10-05T20:51:33.184Z,17.49
2022-10-05T20:54:09.274Z,17.60
2022-10-05T20:56:45.783Z,17.71
2022-10-05T20:59:16.784Z,17.68
2022-10-05T21:01:52.683Z,17.75
2022-10-05T21:04:40.293Z,17.77
2022-10-05T21:07:11.763Z,17.75
2022-10-05T21:09:44.049Z,17.84
2022-10-05T21:12:16.485Z,17.72
2022-10-05T21:14:47.756Z,16.66
2022-10-05T21:17:20.435Z,15.80
2022-10-05T21:19:52.957Z,16.34
2022-10-05T21:22:23.834Z,16.96
2022-10-05T21:24:55.418Z,17.28
2022-10-05T21:27:25.793Z,17.52
2022-10-05T21:29:56.578Z,17.63
2022-10-05T21:32:27.417Z,16.50
2022-10-05T21:34:58.715Z,15.73
2022-10-05T21:37:29.139Z,16.19
2022-10-05T21:39:59.935Z,16.58
2022-10-05T21:42:30.809Z,16.78
2022-10-05T21:45:01.867Z,16.98
2022-10-05T21:47:32.603Z,17.42
2022-10-05T21:50:05.538Z,17.42
2022-10-05T21:52:36.831Z,15.92
2022-10-05T21:55:08.607Z,14.97
2022-10-05T21:57:40.901Z,15.68
2022-10-05T22:00:14.271Z,16.30
2022-10-05T22:02:44.618Z,16.66
2022-10-05T22:05:15.656Z,16.91
2022-10-05T22:07:46.350Z,16.93
2022-10-05T22:10:17.026Z,17.10
2022-10-05T22:12:47.956Z,17.28
2022-10-05T22:15:18.963Z,17.43
2022-10-05T22:17:49.585Z,17.58
2022-10-05T22:20:21.994Z,17.43
2022-10-05T22:22:53.102Z,16.32
2022-10-05T22:25:24.290Z,15.24
2022-10-05T22:27:55.179Z,14.81
2022-10-05T22:30:26.058Z,15.65
2022-10-05T22:32:56.957Z,16.44
2022-10-05T22:35:27.800Z,16.95
2022-10-05T22:37:58.453Z,17.08
2022-10-05T22:40:29.572Z,16.92
2022-10-05T22:42:59.889Z,16.17
2022-10-05T22:45:32.728Z,14.83
2022-10-05T22:48:04.122Z,14.08
2022-10-05T22:50:35.181Z,14.79
2022-10-05T22:53:05.687Z,15.38
2022-10-05T22:55:36.476Z,15.77
2022-10-05T22:58:07.139Z,16.06
2022-10-05T23:00:57.477Z,16.22
2022-10-05T23:03:28.599Z,16.29
2022-10-05T23:06:00.710Z,16.32
2022-10-05T23:08:32.495Z,16.34
2022-10-05T23:11:04.733Z,16.38
2022-10-05T23:13:35.106Z,16.45
2022-10-05T23:16:10.002Z,16.54
2022-10-05T23:18:40.648Z,16.67
2022-10-05T23:21:12.059Z,16.59
2022-10-05T23:23:43.404Z,15.49
2022-10-05T23:26:14.712Z,14.36
2022-10-05T23:28:47.234Z,13.97
2022-10-05T23:31:19.857Z,14.74
2022-10-05T23:33:50.934Z,15.32
2022-10-05T23:36:23.080Z,15.70
2022-10-05T23:38:53.497Z,15.83
2022-10-05T23:41:25.202Z,15.81
2022-10-05T23:43:56.051Z,15.84
2022-10-05T23:46:27.187Z,15.93
2022-10-05T23:48:57.657Z,16.09
2022-10-05T23:51:28.621Z,16.20
2022-10-05T23:53:58.905Z,16.23
2022-10-05T23:56:29.963Z,15.98
2022-10-05T23:59:00.243Z,14.74
